createdAt,value
2022-08-09T05:37:11.566Z,3.45
2022-08-09T05:41:14.202Z,4.28
2022-08-09T05:45:18.254Z,4.30
2022-08-09T05:50:11.009Z,4.80
2022-08-09T05:53:56.560Z,4.13
2022-08-09T05:58:00.639Z,4.22
2022-08-09T06:02:03.282Z,4.70
2022-08-09T06:06:06.619Z,5.28
2022-08-09T06:10:15.647Z,4.25
2022-08-09T06:14:18.572Z,4.78
2022-08-09T06:18:24.799Z,3.70
2022-08-09T06:22:28.999Z,3.72
2022-08-09T06:26:34.315Z,4.03
2022-08-09T06:30:38.191Z,3.70
2022-08-09T06:34:41.145Z,3.17
2022-08-09T06:38:49.994Z,4.25
2022-08-09T06:42:54.641Z,3.95
2022-08-09T06:46:57.206Z,3.50
2022-08-09T06:51:00.427Z,3.30
2022-08-09T06:55:10.267Z,3.00
2022-08-09T07:00:50.509Z,2.85
2022-08-09T07:03:52.485Z,3.30
2022-08-09T07:07:58.789Z,3.40
2022-08-09T07:12:04.043Z,3.47
2022-08-09T07:16:42.348Z,3.08
2022-08-09T07:20:32.250Z,3.30
2022-08-09T07:24:40.735Z,3.88
2022-08-09T07:29:09.112Z,3.60
2022-08-09T07:33:14.829Z,3.47
2022-08-09T07:37:19.510Z,3.45
2022-08-09T07:41:24.653Z,3.20
2022-08-09T07:45:38.127Z,3.80
2022-08-09T07:50:05.227Z,2.90
2022-08-09T07:54:08.617Z,3.03
2022-08-09T07:58:13.158Z,3.40
2022-08-09T08:02:19.746Z,3.15
2022-08-09T08:06:31.922Z,3.22
2022-08-09T08:10:36.009Z,3.07
2022-08-09T08:14:39.453Z,3.20
2022-08-09T08:18:43.617Z,2.90
2022-08-09T08:22:50.223Z,3.10
2022-08-09T08:26:58.375Z,2.85
2022-08-09T08:31:10.593Z,3.15
2022-08-09T08:35:18.098Z,3.10
2022-08-09T08:39:22.874Z,3.15
2022-08-09T08:43:27.172Z,3.20
2022-08-09T08:47:31.016Z,3.10
2022-08-09T08:51:38.879Z,2.88
2022-08-09T08:55:46.184Z,3.03
2022-08-09T08:59:54.071Z,3.08
2022-08-09T09:04:00.932Z,3.42
2022-08-09T09:08:05.344Z,2.95
2022-08-09T09:12:33.960Z,3.17
2022-08-09T09:16:38.027Z,3.03
2022-08-09T09:20:45.016Z,3.35
2022-08-09T09:24:49.841Z,3.13
2022-08-09T09:29:03.493Z,3.20
2022-08-09T09:33:16.668Z,3.25
2022-08-09T09:37:32.171Z,2.80
2022-08-09T09:41:49.011Z,2.90
2022-08-09T09:46:38.891Z,3.13
2022-08-09T09:50:23.122Z,2.85
2022-08-09T09:54:26.048Z,3.10
2022-08-09T09:58:45.724Z,2.90
2022-08-09T10:02:50.125Z,2.90
2022-08-09T10:06:54.646Z,3.00
2022-08-09T10:10:57.301Z,3.15
2022-08-09T10:15:17.228Z,2.75
2022-08-09T10:19:37.511Z,3.05
2022-08-09T10:23:40.756Z,2.63
2022-08-09T10:27:57.651Z,2.72
2022-08-09T10:36:25.913Z,2.75
2022-08-09T10:40:34.852Z,3.00
2022-08-09T10:44:41.015Z,2.80
2022-08-09T10:48:53.826Z,3.15
2022-08-09T10:53:12.701Z,2.80
2022-08-09T10:57:15.549Z,2.88
2022-08-09T11:03:14.275Z,2.97
2022-08-09T11:06:24.237Z,2.72
2022-08-09T11:10:57.810Z,2.92
2022-08-09T11:15:33.882Z,2.92
2022-08-09T11:20:11.837Z,2.80
2022-08-09T11:24:16.685Z,2.97
2022-08-09T11:28:54.188Z,3.08
2022-08-09T11:33:03.984Z,2.70
2022-08-09T11:37:07.920Z,3.30
2022-08-09T11:41:38.311Z,3.03
2022-08-09T11:45:55.239Z,2.80
2022-08-09T11:50:54.271Z,2.83
2022-08-09T11:54:33.245Z,3.15
2022-08-09T11:58:50.274Z,3.08
2022-08-09T12:02:55.059Z,3.10
2022-08-09T12:06:57.905Z,3.28
2022-08-09T12:11:01.935Z,2.85
2022-08-09T12:15:48.362Z,2.90
2022-08-09T12:19:44.160Z,2.90
2022-08-09T12:24:02.850Z,2.97
2022-08-09T12:29:14.481Z,3.20
2022-08-09T12:32:35.973Z,2.95
2022-08-09T12:36:58.590Z,2.95
2022-08-09T12:41:02.046Z,3.13
2022-08-09T12:45:32.551Z,3.08
2022-08-09T12:49:29.305Z,3.30
2022-08-09T12:53:38.681Z,3.60
2022-08-09T12:57:46.161Z,2.75
2022-08-09T13:02:01.605Z,3.30
2022-08-09T13:06:15.930Z,2.97
2022-08-09T13:10:21.485Z,3.00
2022-08-09T13:14:41.193Z,2.63
2022-08-09T13:18:49.627Z,2.90
2022-08-09T13:23:01.071Z,2.65
2022-08-09T13:27:24.275Z,3.08
2022-08-09T13:32:16.568Z,2.53
2022-08-09T13:36:38.170Z,2.85
2022-08-09T13:41:51.303Z,3.55
2022-08-09T13:44:42.816Z,3.20
2022-08-09T13:48:45.623Z,2.72
2022-08-09T13:52:51.180Z,2.88
2022-08-09T13:56:53.734Z,2.90
2022-08-09T14:00:58.106Z,2.95
2022-08-09T14:05:00.756Z,2.90
2022-08-09T14:09:03.409Z,2.83
2022-08-09T14:13:12.018Z,2.70
2022-08-09T14:17:25.607Z,2.78
2022-08-09T14:21:35.296Z,2.65
2022-08-09T14:25:42.627Z,2.60
2022-08-09T14:30:33.281Z,2.53
2022-08-09T14:38:12.610Z,2.40
2022-08-09T14:42:30.134Z,2.58
2022-08-09T14:47:00.987Z,2.70
2022-08-09T14:55:11.644Z,2.58
2022-08-09T14:59:22.687Z,2.83
2022-08-09T15:03:26.998Z,2.70
2022-08-09T15:07:35.189Z,2.80
2022-08-09T15:11:38.337Z,2.92
2022-08-09T15:15:41.098Z,2.60
2022-08-09T15:19:59.213Z,2.92
2022-08-09T15:24:13.938Z,2.88
2022-08-09T15:28:26.474Z,2.78
2022-08-09T15:32:30.776Z,2.58
2022-08-09T15:36:33.297Z,2.80
2022-08-09T15:40:37.230Z,2.60
2022-08-09T15:44:46.179Z,2.67
2022-08-09T15:48:49.838Z,2.70
2022-08-09T15:57:44.520Z,2.58
2022-08-09T16:01:54.198Z,2.63
2022-08-09T16:06:02.917Z,2.38
2022-08-09T16:10:11.437Z,2.60
2022-08-09T16:14:31.368Z,3.00
2022-08-09T16:18:34.928Z,2.70
2022-08-09T16:22:42.087Z,2.60
2022-08-09T16:26:51.079Z,3.00
2022-08-09T16:30:59.097Z,2.72
2022-08-09T16:35:02.461Z,2.97
2022-08-09T16:39:05.717Z,2.70
2022-08-09T16:43:09.684Z,2.55
2022-08-09T16:48:39.961Z,2.83
2022-08-09T16:51:36.932Z,2.42
2022-08-09T16:55:57.746Z,2.53
2022-08-09T17:04:06.893Z,2.70
2022-08-09T17:08:43.877Z,2.70
2022-08-09T17:12:32.366Z,2.60
2022-08-09T17:16:38.082Z,2.58
2022-08-09T17:20:52.326Z,2.70
2022-08-09T17:24:55.852Z,2.53
2022-08-09T17:29:11.599Z,2.67
2022-08-09T17:33:23.323Z,2.60
2022-08-09T17:37:29.662Z,2.67
2022-08-09T17:41:38.986Z,2.60
2022-08-09T17:46:02.891Z,2.63
2022-08-09T17:54:25.130Z,2.72
2022-08-09T17:58:28.009Z,2.50
2022-08-09T18:02:33.737Z,2.70
2022-08-09T18:06:36.642Z,2.53
2022-08-09T18:10:45.933Z,2.53
2022-08-09T18:14:53.760Z,2.40
2022-08-09T18:18:56.898Z,2.30
2022-08-09T18:27:10.061Z,2.80
2022-08-09T18:31:24.724Z,2.50
2022-08-09T18:35:58.355Z,2.60
2022-08-09T18:39:57.771Z,2.42
2022-08-09T18:44:03.018Z,2.63
2022-08-09T18:48:07.280Z,2.60
2022-08-09T18:52:10.187Z,2.60
2022-08-09T18:56:14.426Z,2.38
2022-08-09T19:00:20.454Z,2.30
2022-08-09T19:04:34.594Z,2.30
2022-08-09T19:08:37.991Z,2.20
2022-08-09T19:12:41.473Z,2.40
2022-08-09T19:16:54.097Z,2.38
2022-08-09T19:20:58.598Z,2.28
2022-08-09T19:25:05.225Z,2.00
2022-08-09T19:29:18.338Z,2.25
